Time;durP1;ratioP1;P1;durP2;ratioP2;P2;SDS_P1;SDS_P2;PMS_P1;PMS_P2;Temp;Humidity;BMP_temperature;BMP_pressure;BME280_temperature;BME280_humidity;BME280_pressure;Samples;Min_cycle;Max_cycle;Signal;HPM_P1;HPM_P2
2022/11/12 00:01:58;;;;;;;;;;;18.60;99.90;;;;;;5073039;28;20160;-58
2022/11/12 00:04:43;;;;;;;;;;;18.60;99.90;;;;;;5053859;28;20292;-61
2022/11/12 00:07:29;;;;;;;;;;;18.60;99.90;;;;;;5056184;28;20575;-61
2022/11/12 00:10:15;;;;;;;;;;;18.60;99.90;;;;;;5055582;28;20377;-61
2022/11/12 00:13:01;;;;;;;;;;;18.50;99.90;;;;;;5057723;28;20176;-59
2022/11/12 00:15:46;;;;;;;;;;;18.50;99.90;;;;;;5050086;28;20384;-60
2022/11/12 00:18:32;;;;;;;;;;;18.50;99.90;;;;;;5055651;28;19943;-59
2022/11/12 00:21:17;;;;;;;;;;;18.50;99.90;;;;;;5053206;28;20336;-60
2022/11/12 00:24:03;;;;;;;;;;;18.50;99.90;;;;;;5053471;28;19920;-60
2022/11/12 00:26:48;;;;;;;;;;;18.50;99.90;;;;;;5062408;28;19924;-59
2022/11/12 00:29:34;;;;;;;;;;;18.50;99.90;;;;;;5061267;28;19924;-58
2022/11/12 00:32:19;;;;;;;;;;;18.50;99.90;;;;;;5059213;28;19924;-59
2022/11/12 00:35:06;;;;;;;;;;;18.50;99.90;;;;;;5056700;28;19939;-60
2022/11/12 00:37:59;;;;;;;;;;;18.40;99.90;;;;;;5056613;28;19936;-60
2022/11/12 00:40:45;;;;;;;;;;;18.50;99.90;;;;;;5067045;28;19921;-60
2022/11/12 00:43:30;;;;;;;;;;;18.40;99.90;;;;;;5062546;28;19929;-62
2022/11/12 00:46:16;;;;;;;;;;;18.50;99.90;;;;;;5058178;28;19925;-57
2022/11/12 00:49:02;;;;;;;;;;;18.40;99.90;;;;;;5058148;28;20308;-58
2022/11/12 00:51:48;;;;;;;;;;;18.40;99.90;;;;;;5063793;28;19924;-60
2022/11/12 00:54:34;;;;;;;;;;;18.40;99.90;;;;;;5051936;28;19928;-63
2022/11/12 00:57:19;;;;;;;;;;;18.40;99.90;;;;;;5055552;28;19924;-60
2022/11/12 01:00:06;;;;;;;;;;;18.40;99.90;;;;;;5062641;28;19928;-57
2022/11/12 01:02:51;;;;;;;;;;;18.40;99.90;;;;;;5055205;28;19925;-58
2022/11/12 01:05:37;;;;;;;;;;;18.40;99.90;;;;;;5051516;28;19921;-61
2022/11/12 01:08:23;;;;;;;;;;;18.40;99.90;;;;;;5056006;28;20296;-65
2022/11/12 01:11:11;;;;;;;;;;;18.40;99.90;;;;;;5067867;28;19929;-64
2022/11/12 01:14:01;;;;;;;;;;;18.40;99.90;;;;;;5081297;28;19908;-65
2022/11/12 01:16:46;;;;;;;;;;;18.30;99.90;;;;;;5073455;28;19939;-65
2022/11/12 01:19:32;;;;;;;;;;;18.30;99.90;;;;;;5081471;28;19909;-65
2022/11/12 01:22:18;;;;;;;;;;;18.40;99.90;;;;;;5078661;28;19921;-64
2022/11/12 01:25:04;;;;;;;;;;;18.30;99.90;;;;;;5074926;28;19998;-65
2022/11/12 01:27:52;;;;;;;;;;;18.30;99.90;;;;;;5059183;28;19929;-62
2022/11/12 01:30:38;;;;;;;;;;;18.30;99.90;;;;;;5053413;28;20303;-61
2022/11/12 01:33:23;;;;;;;;;;;18.30;99.90;;;;;;5054091;28;19924;-59
2022/11/12 01:36:09;;;;;;;;;;;18.30;99.90;;;;;;5055913;28;20409;-63
2022/11/12 01:38:55;;;;;;;;;;;18.30;99.90;;;;;;5057904;28;19920;-61
2022/11/12 01:41:40;;;;;;;;;;;18.30;99.90;;;;;;5047647;28;20396;-61
2022/11/12 01:44:29;;;;;;;;;;;18.30;99.90;;;;;;5054172;28;19925;-59
2022/11/12 01:47:25;;;;;;;;;;;18.30;99.90;;;;;;5055240;28;19924;-57
2022/11/12 01:50:19;;;;;;;;;;;18.30;99.90;;;;;;5064583;28;19925;-60
2022/11/12 01:53:07;;;;;;;;;;;18.30;99.90;;;;;;5051438;28;19925;-60
2022/11/12 01:55:53;;;;;;;;;;;18.30;99.90;;;;;;5054253;28;20289;-61
2022/11/12 01:58:39;;;;;;;;;;;18.20;99.90;;;;;;5056980;28;19924;-57
2022/11/12 02:01:25;;;;;;;;;;;18.20;99.90;;;;;;5052097;28;19920;-58
2022/11/12 02:04:11;;;;;;;;;;;18.20;99.90;;;;;;5055596;28;19931;-59
2022/11/12 02:06:58;;;;;;;;;;;18.20;99.90;;;;;;5054753;28;19924;-61
2022/11/12 02:09:44;;;;;;;;;;;18.20;99.90;;;;;;5029608;28;19924;-61
2022/11/12 02:15:34;;;;;;;;;;;18.20;99.90;;;;;;5045309;28;20304;-60
2022/11/12 02:18:19;;;;;;;;;;;18.20;99.90;;;;;;5054416;28;19924;-60
2022/11/12 02:21:07;;;;;;;;;;;18.20;99.90;;;;;;5054011;28;19925;-61
2022/11/12 02:24:04;;;;;;;;;;;18.20;99.90;;;;;;5052336;28;19924;-63
2022/11/12 02:26:51;;;;;;;;;;;18.20;99.90;;;;;;5051509;28;19929;-59
2022/11/12 02:29:45;;;;;;;;;;;18.10;99.90;;;;;;5053386;28;19928;-62
2022/11/12 02:32:30;;;;;;;;;;;18.10;99.90;;;;;;5055510;28;20028;-59
2022/11/12 02:35:16;;;;;;;;;;;18.10;99.90;;;;;;5049071;28;19920;-55
2022/11/12 02:38:01;;;;;;;;;;;18.10;99.90;;;;;;5058308;28;19921;-59
2022/11/12 02:40:47;;;;;;;;;;;18.10;99.90;;;;;;5053685;28;19925;-61
2022/11/12 02:43:33;;;;;;;;;;;18.10;99.90;;;;;;5060383;28;20302;-60
2022/11/12 02:46:19;;;;;;;;;;;18.10;99.90;;;;;;5056978;28;20380;-63
2022/11/12 02:49:04;;;;;;;;;;;18.10;99.90;;;;;;5069900;28;19929;-61
2022/11/12 02:51:50;;;;;;;;;;;18.10;99.90;;;;;;5063874;28;19936;-62
2022/11/12 02:54:35;;;;;;;;;;;18.10;99.90;;;;;;5069409;28;19921;-61
2022/11/12 02:57:21;;;;;;;;;;;18.10;99.90;;;;;;5064424;28;19924;-60
2022/11/12 03:00:09;;;;;;;;;;;18.10;99.90;;;;;;5071018;28;19924;-61
2022/11/12 03:02:57;;;;;;;;;;;18.10;99.90;;;;;;5053853;28;19924;-60
2022/11/12 03:05:44;;;;;;;;;;;18.10;99.90;;;;;;5056237;28;20120;-61
2022/11/12 03:08:30;;;;;;;;;;;18.10;99.90;;;;;;5058764;28;20300;-62
2022/11/12 03:11:16;;;;;;;;;;;18.10;99.90;;;;;;5065744;28;20023;-62
2022/11/12 03:14:01;;;;;;;;;;;18.00;99.90;;;;;;5045626;28;19924;-61
2022/11/12 03:16:47;;;;;;;;;;;18.00;99.90;;;;;;5054708;28;20233;-60
2022/11/12 03:19:33;;;;;;;;;;;18.00;99.90;;;;;;5058095;28;20292;-57
2022/11/12 03:22:18;;;;;;;;;;;18.00;99.90;;;;;;5059600;28;19940;-55
2022/11/12 03:25:04;;;;;;;;;;;18.00;99.90;;;;;;5051567;28;19924;-58
2022/11/12 03:27:57;;;;;;;;;;;18.00;99.90;;;;;;5052815;28;19932;-61
2022/11/12 03:30:43;;;;;;;;;;;18.00;99.90;;;;;;5052757;28;19921;-61
2022/11/12 03:33:29;;;;;;;;;;;18.00;99.90;;;;;;5056951;28;19932;-60
2022/11/12 03:36:15;;;;;;;;;;;18.00;99.90;;;;;;5061136;28;20001;-61
2022/11/12 03:39:00;;;;;;;;;;;18.00;99.90;;;;;;5057679;28;19920;-62
2022/11/12 03:41:46;;;;;;;;;;;18.00;99.90;;;;;;5064519;28;19924;-61
2022/11/12 03:44:32;;;;;;;;;;;18.00;99.90;;;;;;5064305;28;20243;-59
2022/11/12 03:47:18;;;;;;;;;;;18.00;99.90;;;;;;5059180;28;19925;-61
2022/11/12 03:50:05;;;;;;;;;;;18.00;99.90;;;;;;5047085;28;19925;-62
2022/11/12 03:52:52;;;;;;;;;;;18.00;99.90;;;;;;5056285;28;19925;-62
2022/11/12 03:55:38;;;;;;;;;;;18.00;99.90;;;;;;5050784;28;19924;-64
2022/11/12 03:58:23;;;;;;;;;;;18.00;99.90;;;;;;5059706;28;19925;-64
2022/11/12 04:01:10;;;;;;;;;;;17.90;99.90;;;;;;5078519;28;19921;-57
2022/11/12 04:03:55;;;;;;;;;;;17.90;99.90;;;;;;5054871;28;19921;-60
2022/11/12 04:09:45;;;;;;;;;;;17.90;99.90;;;;;;5067878;28;20307;-60
2022/11/12 04:15:35;;;;;;;;;;;17.90;99.90;;;;;;5047151;28;19924;-57
2022/11/12 04:27:41;;;;;;;;;;;17.90;99.90;;;;;;5055871;28;19925;-60
2022/11/12 04:30:27;;;;;;;;;;;17.90;99.90;;;;;;5061514;28;20300;-60
2022/11/12 04:33:13;;;;;;;;;;;17.90;99.90;;;;;;5055275;28;19925;-58
2022/11/12 04:35:58;;;;;;;;;;;17.90;99.90;;;;;;5062550;28;20392;-59
2022/11/12 04:38:43;;;;;;;;;;;17.90;99.90;;;;;;5041185;28;19933;-62
2022/11/12 04:47:39;;;;;;;;;;;17.90;99.90;;;;;;5056455;28;19925;-63
2022/11/12 04:50:25;;;;;;;;;;;17.90;99.90;;;;;;5054121;28;19921;-58
2022/11/12 04:53:10;;;;;;;;;;;17.90;99.90;;;;;;5054075;28;19928;-61
2022/11/12 04:55:56;;;;;;;;;;;17.90;99.90;;;;;;5055568;28;20303;-60
2022/11/12 04:58:42;;;;;;;;;;;18.00;99.90;;;;;;5049740;28;19928;-58
2022/11/12 05:01:28;;;;;;;;;;;18.10;99.90;;;;;;5054709;28;19928;-58
2022/11/12 05:04:13;;;;;;;;;;;18.30;99.90;;;;;;5055973;28;19924;-61
2022/11/12 05:06:59;;;;;;;;;;;18.30;99.90;;;;;;5055121;28;19924;-61
2022/11/12 05:09:45;;;;;;;;;;;18.40;99.90;;;;;;5047581;28;19928;-60
2022/11/12 05:12:30;;;;;;;;;;;18.50;99.90;;;;;;5033312;28;19928;-59
2022/11/12 05:15:16;;;;;;;;;;;18.50;99.90;;;;;;5054420;28;19921;-62
2022/11/12 05:18:02;;;;;;;;;;;18.60;99.90;;;;;;5054457;28;19928;-56
2022/11/12 05:20:50;;;;;;;;;;;18.70;99.90;;;;;;5054878;28;19924;-61
2022/11/12 05:23:35;;;;;;;;;;;18.80;99.90;;;;;;5052741;28;19924;-61
2022/11/12 05:26:21;;;;;;;;;;;18.80;99.90;;;;;;5059543;28;19920;-62
2022/11/12 05:29:07;;;;;;;;;;;18.90;99.90;;;;;;5055196;28;19928;-62
2022/11/12 05:31:54;;;;;;;;;;;18.90;99.90;;;;;;5052899;28;19924;-59
2022/11/12 05:34:40;;;;;;;;;;;18.90;99.90;;;;;;5051765;28;19924;-63
2022/11/12 05:37:25;;;;;;;;;;;18.90;99.90;;;;;;5056954;28;20414;-62
2022/11/12 05:40:11;;;;;;;;;;;18.90;99.90;;;;;;5069310;28;19924;-62
2022/11/12 05:42:57;;;;;;;;;;;18.90;99.90;;;;;;5064038;28;19920;-60
2022/11/12 05:45:43;;;;;;;;;;;18.90;99.90;;;;;;5066397;28;19924;-61
2022/11/12 05:48:29;;;;;;;;;;;18.90;99.90;;;;;;5059314;28;19928;-59
2022/11/12 05:51:16;;;;;;;;;;;18.80;99.90;;;;;;5056952;28;19936;-63
2022/11/12 05:54:02;;;;;;;;;;;18.80;99.90;;;;;;5055189;28;19921;-59
2022/11/12 05:56:47;;;;;;;;;;;18.80;99.90;;;;;;5054655;28;19925;-61
2022/11/12 05:59:33;;;;;;;;;;;18.70;99.90;;;;;;5043671;28;19928;-62
2022/11/12 06:02:18;;;;;;;;;;;18.70;99.90;;;;;;5051599;28;19924;-59
2022/11/12 06:05:05;;;;;;;;;;;18.70;99.90;;;;;;5040454;28;19925;-58
2022/11/12 06:07:50;;;;;;;;;;;18.60;99.90;;;;;;5038768;28;19929;-60
2022/11/12 06:10:36;;;;;;;;;;;18.60;99.90;;;;;;5056127;28;19924;-61
2022/11/12 06:13:22;;;;;;;;;;;18.80;99.90;;;;;;5062967;28;19921;-58
2022/11/12 06:16:08;;;;;;;;;;;19.00;99.90;;;;;;5055526;28;19924;-59
2022/11/12 06:18:54;;;;;;;;;;;19.20;99.90;;;;;;5055004;28;19925;-61
2022/11/12 06:21:39;;;;;;;;;;;19.50;99.90;;;;;;5051893;28;19925;-61
2022/11/12 06:24:25;;;;;;;;;;;19.70;99.90;;;;;;5055146;28;19921;-60
2022/11/12 06:27:19;;;;;;;;;;;19.80;99.90;;;;;;5057160;28;19925;-60
2022/11/12 06:30:06;;;;;;;;;;;19.90;99.90;;;;;;5059177;28;19925;-59
2022/11/12 06:32:52;;;;;;;;;;;20.00;99.90;;;;;;5062847;28;20384;-58
2022/11/12 06:35:37;;;;;;;;;;;20.00;99.90;;;;;;5055742;28;20291;-60
2022/11/12 06:38:30;;;;;;;;;;;20.00;99.90;;;;;;5064569;28;19928;-59
2022/11/12 06:41:15;;;;;;;;;;;20.00;99.90;;;;;;5061831;28;20486;-64
2022/11/12 06:44:02;;;;;;;;;;;20.00;99.90;;;;;;5058642;28;19921;-62
2022/11/12 06:46:48;;;;;;;;;;;20.00;99.90;;;;;;5055719;28;19920;-61
2022/11/12 06:49:33;;;;;;;;;;;20.00;99.90;;;;;;5057130;28;19924;-61
2022/11/12 06:52:19;;;;;;;;;;;20.00;99.90;;;;;;5057147;28;19929;-63
2022/11/12 06:55:05;;;;;;;;;;;20.00;99.90;;;;;;5052729;28;19925;-63
2022/11/12 06:57:51;;;;;;;;;;;20.00;99.90;;;;;;5059123;28;19929;-62
2022/11/12 07:00:37;;;;;;;;;;;20.00;99.90;;;;;;5062356;28;19924;-61
2022/11/12 07:03:23;;;;;;;;;;;20.00;99.90;;;;;;5055327;28;19929;-63
2022/11/12 07:06:10;;;;;;;;;;;20.00;99.90;;;;;;5052888;28;19924;-63
2022/11/12 07:08:56;;;;;;;;;;;20.00;99.90;;;;;;5060374;28;19929;-60
2022/11/12 07:11:42;;;;;;;;;;;20.00;99.90;;;;;;5057267;28;19929;-59
2022/11/12 07:14:28;;;;;;;;;;;20.00;99.90;;;;;;5052870;28;19929;-63
2022/11/12 07:17:13;;;;;;;;;;;20.00;99.90;;;;;;5059038;28;20315;-64
2022/11/12 07:19:59;;;;;;;;;;;19.90;99.90;;;;;;5058830;28;19924;-63
2022/11/12 07:22:48;;;;;;;;;;;19.90;99.90;;;;;;5055982;28;19924;-63
2022/11/12 07:25:34;;;;;;;;;;;19.90;99.90;;;;;;5049487;28;19924;-61
2022/11/12 07:28:20;;;;;;;;;;;19.90;99.90;;;;;;5055726;28;20343;-62
2022/11/12 07:31:07;;;;;;;;;;;19.80;99.90;;;;;;5053702;28;19928;-63
2022/11/12 07:33:52;;;;;;;;;;;19.80;99.90;;;;;;5053680;28;19936;-62
2022/11/12 07:36:38;;;;;;;;;;;19.80;99.90;;;;;;5055704;28;19928;-65
2022/11/12 07:39:24;;;;;;;;;;;19.80;99.90;;;;;;5042296;28;20900;-62
2022/11/12 07:42:09;;;;;;;;;;;19.90;99.90;;;;;;5040656;28;19929;-64
2022/11/12 07:44:55;;;;;;;;;;;19.90;99.90;;;;;;5047924;28;20292;-61
2022/11/12 07:47:40;;;;;;;;;;;20.00;99.90;;;;;;5064468;28;19928;-64
2022/11/12 07:50:26;;;;;;;;;;;19.90;99.90;;;;;;5073518;28;19924;-63
2022/11/12 07:53:12;;;;;;;;;;;19.90;99.90;;;;;;5068611;28;19920;-64
2022/11/12 07:55:59;;;;;;;;;;;19.90;99.90;;;;;;5069127;28;19931;-62
2022/11/12 07:58:45;;;;;;;;;;;19.90;99.90;;;;;;5061642;28;19928;-61
2022/11/12 08:01:34;;;;;;;;;;;19.90;99.90;;;;;;5065295;28;19920;-61
2022/11/12 08:04:20;;;;;;;;;;;20.00;99.90;;;;;;5050584;28;19925;-60
2022/11/12 08:07:06;;;;;;;;;;;19.90;99.90;;;;;;5057673;28;19925;-57
2022/11/12 08:09:53;;;;;;;;;;;19.90;99.90;;;;;;5054939;28;19924;-63
2022/11/12 08:12:38;;;;;;;;;;;19.90;99.90;;;;;;5059383;28;19924;-59
2022/11/12 08:15:24;;;;;;;;;;;19.90;99.90;;;;;;5053089;28;19925;-63
2022/11/12 08:18:10;;;;;;;;;;;19.80;99.90;;;;;;5055749;28;19920;-62
2022/11/12 08:20:59;;;;;;;;;;;19.80;99.90;;;;;;5062348;28;19920;-61
2022/11/12 08:23:45;;;;;;;;;;;19.70;99.90;;;;;;5053046;28;19921;-60
2022/11/12 08:26:31;;;;;;;;;;;19.70;99.90;;;;;;5052448;28;20304;-62
2022/11/12 08:29:17;;;;;;;;;;;19.70;99.90;;;;;;5077059;28;20435;-64
2022/11/12 08:32:02;;;;;;;;;;;19.70;99.90;;;;;;5073880;28;20127;-61
2022/11/12 08:34:51;;;;;;;;;;;19.60;99.90;;;;;;5081188;22;19908;-91
2022/11/12 08:37:37;;;;;;;;;;;19.60;99.90;;;;;;5073876;28;19939;-89
2022/11/12 08:40:29;;;;;;;;;;;19.40;99.90;;;;;;5079956;28;19904;-87
2022/11/12 08:43:19;;;;;;;;;;;19.30;99.90;;;;;;5072347;28;19915;-88
2022/11/12 08:46:11;;;;;;;;;;;19.30;99.90;;;;;;5064814;28;19915;-87
2022/11/12 08:49:28;;;;;;;;;;;19.30;99.90;;;;;;5073719;28;19931;-88
2022/11/12 08:52:20;;;;;;;;;;;19.30;99.90;;;;;;5062966;28;19920;-86
2022/11/12 08:55:20;;;;;;;;;;;19.30;99.90;;;;;;5073912;28;19913;-89
2022/11/12 08:58:20;;;;;;;;;;;19.30;99.90;;;;;;5074931;28;19909;-86
2022/11/12 09:01:15;;;;;;;;;;;19.30;99.90;;;;;;5056815;28;19928;-87
2022/11/12 09:04:24;;;;;;;;;;;;;;;;;;;;;
2022/11/12 09:07:19;;;;;;;;;;;19.50;99.90;;;;;;5078898;28;19919;-88
2022/11/12 09:10:51;;;;;;;;;;;19.50;99.90;;;;;;5082746;28;19927;-88
2022/11/12 09:13:47;;;;;;;;;;;19.70;99.90;;;;;;5057606;28;19925;-88
2022/11/12 09:16:48;;;;;;;;;;;19.80;99.90;;;;;;5068987;28;19919;-88
2022/11/12 09:20:01;;;;;;;;;;;19.90;99.90;;;;;;5073868;28;20310;-88
2022/11/12 09:23:06;;;;;;;;;;;20.00;99.90;;;;;;5059833;28;19927;-88
2022/11/12 09:26:19;;;;;;;;;;;20.20;99.90;;;;;;5059159;28;19931;-90
2022/11/12 09:29:25;;;;;;;;;;;20.30;99.90;;;;;;5076539;28;20003;-87
2022/11/12 09:32:27;;;;;;;;;;;20.40;99.90;;;;;;5061680;28;19970;-88
2022/11/12 09:35:24;;;;;;;;;;;20.40;99.90;;;;;;5050543;28;19909;-89
2022/11/12 09:38:38;;;;;;;;;;;20.40;99.90;;;;;;5049180;28;19925;-87
2022/11/12 09:41:36;;;;;;;;;;;20.30;99.90;;;;;;5053929;28;19928;-89
2022/11/12 09:50:08;;;;;;;;;;;;;;;;;;;;;
2022/11/12 09:53:22;;;;;;;;;;;20.30;99.90;;;;;;4861111;29;19926;-90
2022/11/12 10:00:23;;;;;;;;;;;20.10;99.90;;;;;;4849143;29;19923;-88
2022/11/12 10:03:16;;;;;;;;;;;20.10;99.90;;;;;;4854876;29;19924;-89
2022/11/12 10:06:15;;;;;;;;;;;20.10;99.90;;;;;;4864459;29;19919;-89
2022/11/12 10:09:35;;;;;;;;;;;20.10;99.90;;;;;;4862729;29;19915;-88
2022/11/12 10:12:34;;;;;;;;;;;20.10;99.90;;;;;;4865998;29;19938;-86
2022/11/12 10:19:26;;;;;;;;;;;20.00;99.90;;;;;;4841226;29;20074;-88
2022/11/12 10:23:04;;;;;;;;;;;20.00;99.90;;;;;;4840022;29;20040;-85
2022/11/12 10:26:15;;;;;;;;;;;20.00;99.90;;;;;;5069101;27;2114084;-60
2022/11/12 10:29:10;;;;;;;;;;;19.90;99.90;;;;;;5106770;22;19924;-62
2022/11/12 10:31:55;;;;;;;;;;;19.90;99.90;;;;;;5069194;28;20358;-62
2022/11/12 10:34:42;;;;;;;;;;;19.80;99.90;;;;;;5063849;28;19936;-62
2022/11/12 10:37:41;;;;;;;;;;;19.80;99.90;;;;;;5070110;28;19940;-62
2022/11/12 10:40:27;;;;;;;;;;;19.80;99.90;;;;;;5073824;28;19932;-64
2022/11/12 10:43:16;;;;;;;;;;;19.70;99.90;;;;;;5067935;28;19932;-59
2022/11/12 10:46:13;;;;;;;;;;;19.70;99.90;;;;;;5061008;28;20544;-61
2022/11/12 10:49:03;;;;;;;;;;;19.70;99.90;;;;;;5069183;28;19935;-61
2022/11/12 10:51:56;;;;;;;;;;;19.60;99.90;;;;;;5070810;28;20411;-60
2022/11/12 10:54:42;;;;;;;;;;;19.60;99.90;;;;;;5068323;28;19939;-62
2022/11/12 10:57:28;;;;;;;;;;;19.60;99.90;;;;;;5077366;28;19940;-63
2022/11/12 11:00:17;;;;;;;;;;;19.60;99.90;;;;;;5068966;28;19944;-65
2022/11/12 11:03:15;;;;;;;;;;;19.60;99.90;;;;;;5070940;28;19932;-60
2022/11/12 11:06:06;;;;;;;;;;;19.50;99.90;;;;;;5063072;28;19947;-60
2022/11/12 11:09:15;;;;;;;;;;;19.50;99.90;;;;;;5074435;28;19935;-60
2022/11/12 11:12:01;;;;;;;;;;;19.50;99.90;;;;;;5059166;28;19932;-60
2022/11/12 11:15:03;;;;;;;;;;;19.50;99.90;;;;;;5060476;28;20315;-63
2022/11/12 11:17:48;;;;;;;;;;;19.40;99.90;;;;;;5070034;28;19955;-61
2022/11/12 11:20:43;;;;;;;;;;;19.40;99.90;;;;;;5068992;28;20505;-63
2022/11/12 11:23:40;;;;;;;;;;;19.40;99.90;;;;;;5066806;28;19935;-61
2022/11/12 11:26:35;;;;;;;;;;;19.40;99.90;;;;;;5066713;28;19996;-65
2022/11/12 11:29:36;;;;;;;;;;;19.40;99.90;;;;;;5076715;28;19932;-63
2022/11/12 11:32:28;;;;;;;;;;;19.40;99.90;;;;;;5088181;28;19955;-62
2022/11/12 11:35:43;;;;;;;;;;;19.40;99.90;;;;;;5088317;28;19935;-62
2022/11/12 11:38:38;;;;;;;;;;;19.40;99.90;;;;;;5067953;28;19940;-66
2022/11/12 11:41:29;;;;;;;;;;;19.50;99.90;;;;;;5079128;28;20386;-68
2022/11/12 11:44:18;;;;;;;;;;;19.50;99.90;;;;;;5074908;28;19935;-62
2022/11/12 11:47:16;;;;;;;;;;;19.60;99.90;;;;;;5077606;28;19948;-69
2022/11/12 11:50:02;;;;;;;;;;;19.60;99.90;;;;;;5074048;28;19956;-67
2022/11/12 11:53:00;;;;;;;;;;;19.60;99.90;;;;;;5069888;28;20079;-67
2022/11/12 11:55:54;;;;;;;;;;;19.70;99.90;;;;;;5062806;28;19938;-67
2022/11/12 11:58:48;;;;;;;;;;;19.70;99.90;;;;;;5074102;28;19951;-68
2022/11/12 12:01:46;;;;;;;;;;;19.80;99.90;;;;;;5075315;28;19935;-72
2022/11/12 12:04:41;;;;;;;;;;;19.80;99.90;;;;;;5088199;28;19939;-67
2022/11/12 12:07:34;;;;;;;;;;;19.80;99.90;;;;;;5085771;28;20326;-68
2022/11/12 12:10:38;;;;;;;;;;;19.80;99.90;;;;;;5082061;28;20402;-67
2022/11/12 12:13:51;;;;;;;;;;;19.80;99.90;;;;;;5069560;28;19935;-68
2022/11/12 12:16:45;;;;;;;;;;;19.80;99.90;;;;;;5070157;28;19935;-67
2022/11/12 12:19:37;;;;;;;;;;;19.70;99.90;;;;;;5076698;28;19932;-66
2022/11/12 12:22:34;;;;;;;;;;;19.70;99.90;;;;;;5075850;28;19939;-65
2022/11/12 12:25:19;;;;;;;;;;;19.70;99.90;;;;;;5071226;28;19935;-68
2022/11/12 12:28:12;;;;;;;;;;;19.70;99.90;;;;;;5061183;28;19976;-68
2022/11/12 12:31:01;;;;;;;;;;;19.60;99.90;;;;;;5071600;28;19943;-67
2022/11/12 12:33:52;;;;;;;;;;;19.60;99.90;;;;;;5056439;28;19936;-68
2022/11/12 12:36:39;;;;;;;;;;;19.60;99.90;;;;;;5063265;28;19935;-68
2022/11/12 12:39:30;;;;;;;;;;;19.60;99.90;;;;;;5077812;28;19939;-67
2022/11/12 12:42:21;;;;;;;;;;;19.60;99.90;;;;;;5065642;28;19935;-69
2022/11/12 12:45:20;;;;;;;;;;;19.50;99.90;;;;;;5071125;28;19935;-67
2022/11/12 12:48:11;;;;;;;;;;;19.50;99.90;;;;;;5061799;28;19940;-68
2022/11/12 12:50:56;;;;;;;;;;;19.50;99.90;;;;;;5061732;28;20011;-68
2022/11/12 12:53:42;;;;;;;;;;;19.50;99.90;;;;;;5076547;28;20430;-69
2022/11/12 12:56:31;;;;;;;;;;;19.40;99.90;;;;;;5077784;28;20042;-68
2022/11/12 12:59:23;;;;;;;;;;;19.40;99.90;;;;;;5075739;28;19939;-68
2022/11/12 13:02:19;;;;;;;;;;;19.40;99.90;;;;;;5071268;28;19936;-67
2022/11/12 13:05:05;;;;;;;;;;;19.40;99.90;;;;;;5068638;28;19936;-68
2022/11/12 13:07:51;;;;;;;;;;;19.50;99.90;;;;;;5075509;28;19932;-66
2022/11/12 13:10:43;;;;;;;;;;;19.50;99.90;;;;;;5060536;28;19935;-67
2022/11/12 13:13:33;;;;;;;;;;;19.60;99.90;;;;;;5075294;28;20407;-68
2022/11/12 13:16:39;;;;;;;;;;;19.60;99.90;;;;;;5077236;28;19935;-69
2022/11/12 13:19:28;;;;;;;;;;;19.60;99.90;;;;;;5031736;28;19936;-69
2022/11/12 13:22:17;;;;;;;;;;;19.60;99.90;;;;;;5072329;28;19939;-67
2022/11/12 13:25:14;;;;;;;;;;;19.70;99.90;;;;;;5064751;28;19932;-68
2022/11/12 13:28:10;;;;;;;;;;;19.70;99.90;;;;;;5068738;28;19932;-67
2022/11/12 13:30:56;;;;;;;;;;;19.70;99.90;;;;;;5069412;28;20002;-69
2022/11/12 13:33:42;;;;;;;;;;;19.70;99.90;;;;;;5070777;28;20387;-67
2022/11/12 13:36:28;;;;;;;;;;;19.70;99.90;;;;;;5053723;28;19944;-69
2022/11/12 13:39:15;;;;;;;;;;;19.70;99.90;;;;;;5074396;28;19939;-68
2022/11/12 13:45:24;;;;;;;;;;;19.60;99.90;;;;;;5068887;28;19936;-68
2022/11/12 13:48:22;;;;;;;;;;;19.60;99.90;;;;;;5073020;28;20517;-69
2022/11/12 13:51:14;;;;;;;;;;;19.60;99.90;;;;;;5078168;28;19936;-65
2022/11/12 13:54:00;;;;;;;;;;;19.60;99.90;;;;;;5072203;28;19932;-65
2022/11/12 13:56:46;;;;;;;;;;;19.50;99.90;;;;;;5063062;28;19963;-64
2022/11/12 13:59:32;;;;;;;;;;;19.50;99.90;;;;;;5075179;28;19935;-68
2022/11/12 14:02:25;;;;;;;;;;;19.50;99.90;;;;;;5076824;28;19999;-68
2022/11/12 14:05:22;;;;;;;;;;;19.50;99.90;;;;;;5063292;28;19949;-66
2022/11/12 14:08:32;;;;;;;;;;;19.40;99.90;;;;;;5076069;28;20299;-63
2022/11/12 14:11:27;;;;;;;;;;;19.40;99.90;;;;;;5074061;28;20283;-65
2022/11/12 14:14:21;;;;;;;;;;;19.40;99.90;;;;;;5074145;28;19931;-68
2022/11/12 14:17:26;;;;;;;;;;;19.40;99.90;;;;;;5068785;28;19947;-66
2022/11/12 14:20:20;;;;;;;;;;;19.40;99.90;;;;;;5069858;28;19939;-62
2022/11/12 14:23:35;;;;;;;;;;;19.30;99.90;;;;;;5074492;28;19937;-69
2022/11/12 14:26:32;;;;;;;;;;;19.30;99.90;;;;;;5061584;28;19932;-68
2022/11/12 14:29:18;;;;;;;;;;;19.20;99.90;;;;;;5056553;28;19932;-67
2022/11/12 14:32:07;;;;;;;;;;;19.30;99.90;;;;;;5075678;28;19939;-66
2022/11/12 14:34:53;;;;;;;;;;;19.30;99.90;;;;;;5075773;28;20137;-67
2022/11/12 14:37:41;;;;;;;;;;;19.30;99.90;;;;;;5074016;28;20272;-66
2022/11/12 14:40:30;;;;;;;;;;;19.30;99.90;;;;;;5079963;28;19978;-66
2022/11/12 14:43:34;;;;;;;;;;;19.30;99.90;;;;;;5064198;28;19979;-68
2022/11/12 14:46:35;;;;;;;;;;;19.20;99.90;;;;;;5068874;28;19951;-68
2022/11/12 14:49:41;;;;;;;;;;;19.30;99.90;;;;;;5065737;28;19931;-69
2022/11/12 14:52:31;;;;;;;;;;;19.30;99.90;;;;;;5072349;28;20330;-66
2022/11/12 14:55:23;;;;;;;;;;;19.30;99.90;;;;;;5058079;28;20316;-68
2022/11/12 14:58:13;;;;;;;;;;;19.40;99.90;;;;;;5073439;28;19991;-69
2022/11/12 15:01:16;;;;;;;;;;;19.50;99.90;;;;;;5066631;28;19936;-69
2022/11/12 15:04:24;;;;;;;;;;;19.60;99.90;;;;;;5070734;28;19932;-70
2022/11/12 15:07:23;;;;;;;;;;;19.80;99.90;;;;;;5071253;28;19963;-66
2022/11/12 15:10:28;;;;;;;;;;;19.90;99.90;;;;;;5067875;28;19936;-65
2022/11/12 15:13:18;;;;;;;;;;;19.90;99.90;;;;;;5070226;28;19944;-65
2022/11/12 15:16:06;;;;;;;;;;;19.90;99.90;;;;;;5066855;28;20072;-65
2022/11/12 15:19:14;;;;;;;;;;;19.90;99.90;;;;;;5074878;28;20308;-67
2022/11/12 15:22:01;;;;;;;;;;;19.90;99.90;;;;;;5071536;28;19931;-68
2022/11/12 15:24:48;;;;;;;;;;;19.90;99.90;;;;;;5074326;28;20038;-68
2022/11/12 15:27:38;;;;;;;;;;;19.90;99.90;;;;;;5072123;28;19955;-70
2022/11/12 15:30:26;;;;;;;;;;;19.90;99.90;;;;;;5068662;28;19939;-68
2022/11/12 15:33:12;;;;;;;;;;;19.90;99.90;;;;;;5073839;28;19959;-68
2022/11/12 15:35:59;;;;;;;;;;;19.80;99.90;;;;;;5060054;28;19940;-65
2022/11/12 15:38:49;;;;;;;;;;;19.80;99.90;;;;;;5068295;28;20375;-64
2022/11/12 15:41:34;;;;;;;;;;;19.80;99.90;;;;;;5069748;28;19935;-66
2022/11/12 15:44:20;;;;;;;;;;;19.80;99.90;;;;;;5071152;28;19935;-64
2022/11/12 15:47:07;;;;;;;;;;;19.80;99.90;;;;;;5081649;28;19948;-67
2022/11/12 15:49:54;;;;;;;;;;;19.80;99.90;;;;;;5071227;28;19954;-62
2022/11/12 15:52:40;;;;;;;;;;;19.80;99.90;;;;;;5055842;28;19935;-66
2022/11/12 15:55:26;;;;;;;;;;;19.80;99.90;;;;;;5068020;28;19935;-67
2022/11/12 15:58:15;;;;;;;;;;;19.80;99.90;;;;;;5083367;28;19955;-68
2022/11/12 16:01:00;;;;;;;;;;;19.80;99.90;;;;;;5081296;28;19931;-68
2022/11/12 16:03:46;;;;;;;;;;;19.70;99.90;;;;;;5070173;28;19935;-69
2022/11/12 16:06:32;;;;;;;;;;;19.70;99.90;;;;;;5076025;28;19935;-68
2022/11/12 16:09:17;;;;;;;;;;;19.70;99.90;;;;;;5062733;28;20447;-67
2022/11/12 16:12:03;;;;;;;;;;;19.70;99.90;;;;;;5073878;28;19931;-68
2022/11/12 16:14:49;;;;;;;;;;;19.70;99.90;;;;;;5068808;28;19935;-66
2022/11/12 16:17:34;;;;;;;;;;;19.70;99.90;;;;;;5054081;28;19936;-67
2022/11/12 16:20:24;;;;;;;;;;;19.60;99.90;;;;;;5058514;28;19951;-68
2022/11/12 16:23:10;;;;;;;;;;;19.60;99.90;;;;;;5074198;28;20631;-66
2022/11/12 16:25:58;;;;;;;;;;;19.60;99.90;;;;;;5069669;28;19951;-65
2022/11/12 16:28:44;;;;;;;;;;;19.60;99.90;;;;;;5073487;28;19935;-68
2022/11/12 16:31:30;;;;;;;;;;;19.60;99.90;;;;;;5075505;28;19932;-67
2022/11/12 16:34:19;;;;;;;;;;;19.60;99.90;;;;;;5071409;28;19932;-67
2022/11/12 16:37:10;;;;;;;;;;;19.70;99.90;;;;;;5059781;28;19932;-68
2022/11/12 16:39:57;;;;;;;;;;;19.70;99.90;;;;;;5075160;28;19932;-67
2022/11/12 16:42:46;;;;;;;;;;;19.70;99.90;;;;;;5079460;28;19947;-68
2022/11/12 16:45:37;;;;;;;;;;;19.70;99.90;;;;;;5068084;28;19935;-69
2022/11/12 16:48:23;;;;;;;;;;;19.70;99.90;;;;;;5067079;28;20390;-67
2022/11/12 16:51:14;;;;;;;;;;;19.70;99.90;;;;;;5072301;28;19936;-67
2022/11/12 16:54:00;;;;;;;;;;;19.70;99.90;;;;;;5068649;28;19931;-67
2022/11/12 16:56:45;;;;;;;;;;;19.70;99.90;;;;;;5066192;28;19931;-68
2022/11/12 16:59:31;;;;;;;;;;;19.70;99.90;;;;;;5073229;28;20038;-69
2022/11/12 17:02:17;;;;;;;;;;;19.70;99.90;;;;;;5074914;28;20225;-69
2022/11/12 17:05:03;;;;;;;;;;;19.80;99.90;;;;;;5068159;28;20011;-70
2022/11/12 17:07:49;;;;;;;;;;;19.80;99.90;;;;;;5077459;28;19951;-69
2022/11/12 17:10:35;;;;;;;;;;;19.90;99.90;;;;;;5067252;28;19939;-67
2022/11/12 17:13:20;;;;;;;;;;;20.00;99.90;;;;;;5070201;28;19931;-68